MiSS Stacie — WDF5915 — position and weather

sailwx.info

Track history (hours):
 
Tides and Currents Weather Stations Pressure Air Temp Water Temp Dewpoint Dewpoint Depression Visibility Wind Speed Wind Dir Waves Ship Positions

MiSS Stacie

Owner: Crosby Marine Transportation LLC, Golden Meadow, LA. More information available from US FCC via Universal Licensing System and Coast Guard Vessel Documentation Center.

Last reported at 2015-May-05 21:06 UTC. Time now 2015-May-06 01:22 UTC.
Position N 29°50' W 090°03'.

Length 20 m; draft 2 m.

Type: Tug. MMSI: 367468640.

Date/timePositionNaut miles runAvg speedWind from/ knotsBaromVisibWave heightAir tempDewpointWater temp
2015-May-05 21:06N 29°50' W 090°03'31 1.2
2015-May-04 19:33N 29°34' W 090°34'6 5.7
2015-May-04 18:33N 29°36' W 090°40'4 3.6
2015-May-04 17:33N 29°34' W 090°44'6 6.3
2015-May-04 16:33N 29°32' W 090°51'  
2015-Apr-30 22:33N 29°32' W 090°50'6 5.6
2015-Apr-30 21:33N 29°34' W 090°44'4 3.6
2015-Apr-30 20:33N 29°37' W 090°41'0 0.0
2015-Apr-30 19:33N 29°37' W 090°41'0 0.0
2015-Apr-30 18:34N 29°37' W 090°41'5 5.3
2015-Apr-30 17:33N 29°35' W 090°36'23 5.4
2015-Apr-30 13:23N 29°42' W 090°11'15 2.9
2015-Apr-30 08:17N 29°55' W 090°04'0 0.0
2015-Apr-30 07:33N 29°55' W 090°04'0 0.0
2015-Apr-30 06:33N 29°55' W 090°04'0 0.0
2015-Apr-30 05:32N 29°55' W 090°04'0 0.0
2015-Apr-30 04:32N 29°55' W 090°04'0 0.0
2015-Apr-30 03:29N 29°55' W 090°04'0 0.0
2015-Apr-30 02:25N 29°55' W 090°04'0 0.0
2015-Apr-30 01:33N 29°55' W 090°04'3 2.8
2015-Apr-30 00:32N 29°57' W 090°02'2 1.9
2015-Apr-29 23:33N 29°57' W 090°00'5 4.5
2015-Apr-29 22:29N 29°55' W 090°05'0 0.3
2015-Apr-29 21:30N 29°54' W 090°05'4 3.8
2015-Apr-29 20:26N 29°50' W 090°04'  
2015-Apr-27 14:23N 29°50' W 090°03'3 0.3
2015-Apr-27 04:33N 29°47' W 090°04'0 0.0
2015-Apr-27 03:27N 29°47' W 090°04'0 0.0
2015-Apr-25 22:07N 29°47' W 090°04'0 0.0
2015-Apr-25 21:16N 29°47' W 090°04'  
Track history (hours):
 
Tides and Currents Weather Stations Pressure Air Temp Water Temp Dewpoint Dewpoint Depression Visibility Wind Speed Wind Dir Waves Ship Positions

MiSS Stacie

Owner: Crosby Marine Transportation LLC, Golden Meadow, LA. More information available from US FCC via Universal Licensing System and Coast Guard Vessel Documentation Center.

Last reported at 2015-May-05 21:06 UTC. Time now 2015-May-06 01:22 UTC.
Position N 29°50' W 090°03'.

Length 20 m; draft 2 m.

Type: Tug. MMSI: 367468640.

Date/timePositionNaut miles runAvg speedWind from/ knotsBaromVisibWave heightAir tempDewpointWater temp
2015-May-05 21:06N 29°50' W 090°03'31 1.2
2015-May-04 19:33N 29°34' W 090°34'6 5.7
2015-May-04 18:33N 29°36' W 090°40'4 3.6
2015-May-04 17:33N 29°34' W 090°44'6 6.3
2015-May-04 16:33N 29°32' W 090°51'  
2015-Apr-30 22:33N 29°32' W 090°50'6 5.6
2015-Apr-30 21:33N 29°34' W 090°44'4 3.6
2015-Apr-30 20:33N 29°37' W 090°41'0 0.0
2015-Apr-30 19:33N 29°37' W 090°41'0 0.0
2015-Apr-30 18:34N 29°37' W 090°41'5 5.3
2015-Apr-30 17:33N 29°35' W 090°36'23 5.4
2015-Apr-30 13:23N 29°42' W 090°11'15 2.9
2015-Apr-30 08:17N 29°55' W 090°04'0 0.0
2015-Apr-30 07:33N 29°55' W 090°04'0 0.0
2015-Apr-30 06:33N 29°55' W 090°04'0 0.0
2015-Apr-30 05:32N 29°55' W 090°04'0 0.0
2015-Apr-30 04:32N 29°55' W 090°04'0 0.0
2015-Apr-30 03:29N 29°55' W 090°04'0 0.0
2015-Apr-30 02:25N 29°55' W 090°04'0 0.0
2015-Apr-30 01:33N 29°55' W 090°04'3 2.8
2015-Apr-30 00:32N 29°57' W 090°02'2 1.9
2015-Apr-29 23:33N 29°57' W 090°00'5 4.5
2015-Apr-29 22:29N 29°55' W 090°05'0 0.3
2015-Apr-29 21:30N 29°54' W 090°05'4 3.8
2015-Apr-29 20:26N 29°50' W 090°04'  
2015-Apr-27 14:23N 29°50' W 090°03'3 0.3
2015-Apr-27 04:33N 29°47' W 090°04'0 0.0
2015-Apr-27 03:27N 29°47' W 090°04'0 0.0
2015-Apr-25 22:07N 29°47' W 090°04'0 0.0
2015-Apr-25 21:16N 29°47' W 090°04'  

Dump ship's entire track history